createdAt,value
2022-12-18T00:02:17.892Z,-3.43
2022-12-18T00:05:21.300Z,-3.43
2022-12-18T00:08:24.683Z,-3.47
2022-12-18T00:11:30.584Z,-3.52
2022-12-18T00:14:33.559Z,-3.59
2022-12-18T00:17:37.074Z,-3.63
2022-12-18T00:20:41.944Z,-3.75
2022-12-18T00:23:47.417Z,-3.80
2022-12-18T00:26:50.205Z,-3.94
2022-12-18T00:29:53.272Z,-4.07
2022-12-18T00:32:56.471Z,-4.19
2022-12-18T00:36:12.188Z,-4.27
2022-12-18T00:39:16.161Z,-4.40
2022-12-18T00:42:40.471Z,-4.47
2022-12-18T00:45:43.739Z,-4.59
2022-12-18T00:48:48.329Z,-4.59
2022-12-18T00:51:51.391Z,-4.68
2022-12-18T00:54:55.253Z,-4.77
2022-12-18T00:57:58.339Z,-4.82
2022-12-18T01:01:01.814Z,-4.86
2022-12-18T01:04:06.414Z,-4.85
2022-12-18T01:07:11.361Z,-4.88
2022-12-18T01:10:14.912Z,-4.77
2022-12-18T01:13:18.679Z,-4.74
2022-12-18T01:16:23.408Z,-4.66
2022-12-18T01:19:26.837Z,-4.65
2022-12-18T01:22:31.326Z,-4.63
2022-12-18T01:25:40.192Z,-4.59
2022-12-18T01:28:46.346Z,-4.48
2022-12-18T01:31:51.324Z,-4.49
2022-12-18T01:34:54.400Z,-4.45
2022-12-18T01:37:59.187Z,-4.50
2022-12-18T01:41:04.059Z,-4.53
2022-12-18T01:44:45.966Z,-4.52
2022-12-18T01:47:53.104Z,-4.55
2022-12-18T01:50:57.010Z,-4.63
2022-12-18T01:54:01.834Z,-4.64
2022-12-18T01:57:05.283Z,-4.58
2022-12-18T02:00:14.804Z,-4.60
2022-12-18T02:03:19.121Z,-4.65
2022-12-18T02:06:34.497Z,-4.70
2022-12-18T02:10:00.838Z,-4.74
2022-12-18T02:13:29.217Z,-4.87
2022-12-18T02:16:54.867Z,-5.02
2022-12-18T02:20:19.657Z,-5.06
2022-12-18T02:23:37.706Z,-5.15
2022-12-18T02:26:52.196Z,-5.25
2022-12-18T02:30:00.703Z,-5.31
2022-12-18T02:33:07.520Z,-5.42
2022-12-18T02:36:14.050Z,-5.50
2022-12-18T02:39:21.359Z,-5.56
2022-12-18T02:42:25.742Z,-5.53
2022-12-18T02:45:29.196Z,-5.55
2022-12-18T02:48:35.090Z,-5.61
2022-12-18T02:52:11.222Z,-5.59
2022-12-18T02:55:17.731Z,-5.58
2022-12-18T02:58:37.689Z,-5.63
2022-12-18T03:01:56.167Z,-5.69
2022-12-18T03:05:03.295Z,-5.76
2022-12-18T03:08:29.144Z,-5.79
2022-12-18T03:11:57.063Z,-5.86
2022-12-18T03:15:14.564Z,-5.91
2022-12-18T03:18:26.146Z,-6.00
2022-12-18T03:21:43.681Z,-6.10
2022-12-18T03:24:49.788Z,-6.14
2022-12-18T03:27:59.948Z,-6.15
2022-12-18T03:31:08.673Z,-6.18
2022-12-18T03:34:18.735Z,-6.09
2022-12-18T03:37:22.762Z,-6.05
2022-12-18T03:40:36.450Z,-6.19
2022-12-18T03:43:53.312Z,-6.28
2022-12-18T03:46:57.554Z,-6.33
2022-12-18T03:50:12.470Z,-6.36
2022-12-18T03:53:59.054Z,-6.38
2022-12-18T03:57:15.780Z,-6.42
2022-12-18T04:00:22.735Z,-6.48
2022-12-18T04:03:32.391Z,-6.45
2022-12-18T04:06:37.428Z,-6.43
2022-12-18T04:09:44.426Z,-6.44
2022-12-18T04:12:49.665Z,-6.47
2022-12-18T04:15:56.189Z,-6.59
2022-12-18T04:19:00.415Z,-6.63
2022-12-18T04:22:05.354Z,-6.68
2022-12-18T04:25:13.480Z,-6.72
2022-12-18T04:28:20.593Z,-6.73
2022-12-18T04:31:27.951Z,-6.73
2022-12-18T04:34:35.012Z,-6.74
2022-12-18T04:37:38.902Z,-6.77
2022-12-18T04:40:42.500Z,-6.85
2022-12-18T04:43:46.511Z,-6.89
2022-12-18T04:46:49.988Z,-6.82
2022-12-18T04:49:53.526Z,-6.89
2022-12-18T04:52:59.179Z,-6.97
2022-12-18T04:56:08.839Z,-7.02
2022-12-18T04:59:12.329Z,-7.08
2022-12-18T05:02:15.404Z,-6.99
2022-12-18T05:05:19.862Z,-6.96
2022-12-18T05:08:23.214Z,-6.99
2022-12-18T05:11:27.447Z,-7.01
2022-12-18T05:14:30.715Z,-7.04
2022-12-18T05:17:33.976Z,-7.05
2022-12-18T05:20:37.199Z,-7.03
2022-12-18T05:23:40.937Z,-7.07
2022-12-18T05:26:44.315Z,-7.10
2022-12-18T05:29:47.970Z,-7.10
2022-12-18T05:32:51.227Z,-7.06
2022-12-18T05:35:57.856Z,-7.10
2022-12-18T05:39:02.008Z,-7.20
2022-12-18T05:42:05.442Z,-7.15
2022-12-18T05:45:09.120Z,-7.20
2022-12-18T05:48:13.678Z,-7.25
2022-12-18T05:51:19.288Z,-7.31
2022-12-18T05:54:23.325Z,-7.26
2022-12-18T05:57:26.418Z,-7.23
2022-12-18T06:00:30.933Z,-7.17
2022-12-18T06:03:34.430Z,-7.27
2022-12-18T06:06:37.868Z,-7.30
2022-12-18T06:09:43.331Z,-7.39
2022-12-18T06:12:46.540Z,-7.42
2022-12-18T06:15:50.980Z,-7.50
2022-12-18T06:18:54.445Z,-7.60
2022-12-18T06:21:59.999Z,-7.65
2022-12-18T06:25:03.210Z,-7.66
2022-12-18T06:28:06.954Z,-7.63
2022-12-18T06:31:11.057Z,-7.59
2022-12-18T06:34:14.432Z,-7.43
2022-12-18T06:37:17.823Z,-7.51
2022-12-18T06:40:21.355Z,-7.46
2022-12-18T06:43:24.657Z,-7.50
2022-12-18T06:46:28.344Z,-7.44
2022-12-18T06:49:31.651Z,-7.43
2022-12-18T06:52:35.461Z,-7.43
2022-12-18T06:55:38.521Z,-7.36
2022-12-18T06:58:46.029Z,-7.26
2022-12-18T07:01:49.343Z,-7.23
2022-12-18T07:04:53.866Z,-7.19
2022-12-18T07:07:57.007Z,-7.13
2022-12-18T07:11:00.516Z,-7.13
2022-12-18T07:14:03.908Z,-7.11
2022-12-18T07:17:07.472Z,-7.06
2022-12-18T07:20:11.245Z,-7.01
2022-12-18T07:23:14.645Z,-6.94
2022-12-18T07:26:20.355Z,-6.87
2022-12-18T07:29:24.113Z,-6.82
2022-12-18T07:32:27.211Z,-6.64
2022-12-18T07:35:30.632Z,-6.55
2022-12-18T07:38:36.071Z,-6.49
2022-12-18T07:41:46.778Z,-6.34
2022-12-18T07:44:52.288Z,-6.19
2022-12-18T07:47:55.669Z,-5.99
2022-12-18T07:51:04.383Z,-5.82
2022-12-18T07:54:07.954Z,-5.72
2022-12-18T07:57:27.376Z,-5.63
2022-12-18T08:00:35.617Z,-5.42
2022-12-18T08:03:42.130Z,-5.29
2022-12-18T08:06:48.354Z,-5.25
2022-12-18T08:09:52.021Z,-5.13
2022-12-18T08:12:56.336Z,-5.11
2022-12-18T08:16:07.112Z,-4.95
2022-12-18T08:19:10.380Z,-4.55
2022-12-18T08:22:14.539Z,-4.17
2022-12-18T08:25:18.004Z,-3.88
2022-12-18T08:28:21.637Z,-3.62
2022-12-18T08:31:26.245Z,-3.37
2022-12-18T08:34:29.743Z,-3.27
2022-12-18T08:37:32.921Z,-2.99
2022-12-18T08:40:36.561Z,-2.77
2022-12-18T08:43:58.181Z,-2.62
2022-12-18T08:47:01.486Z,-2.51
2022-12-18T08:50:05.270Z,-2.65
2022-12-18T08:53:08.856Z,-2.69
2022-12-18T08:56:12.480Z,-2.77
2022-12-18T08:59:19.661Z,-2.97
2022-12-18T09:02:24.020Z,-3.07
2022-12-18T09:05:27.496Z,-3.04
2022-12-18T09:08:31.388Z,-3.02
2022-12-18T09:11:35.371Z,-2.94
2022-12-18T09:14:38.547Z,-2.58
2022-12-18T09:17:41.900Z,-2.22
2022-12-18T09:20:45.484Z,-1.92
2022-12-18T09:23:53.535Z,-1.54
2022-12-18T09:26:58.019Z,-1.34
2022-12-18T09:30:01.777Z,-1.03
2022-12-18T09:33:04.853Z,-1.03
2022-12-18T09:36:12.689Z,-0.77
2022-12-18T09:39:15.889Z,-0.57
2022-12-18T09:42:24.119Z,-0.33
2022-12-18T09:45:29.119Z,-0.44
2022-12-18T09:48:37.493Z,-0.33
2022-12-18T09:51:50.204Z,-0.32
2022-12-18T09:55:01.961Z,-0.30
2022-12-18T09:58:11.117Z,-0.17
2022-12-18T10:01:23.773Z,-0.16
2022-12-18T10:04:32.050Z,-0.22
2022-12-18T10:07:53.870Z,-0.23
2022-12-18T10:11:05.956Z,-0.65
2022-12-18T10:14:19.380Z,-1.00
2022-12-18T10:17:43.005Z,-1.31
2022-12-18T10:20:54.085Z,-1.38
2022-12-18T10:24:17.525Z,-1.41
2022-12-18T10:27:25.467Z,-1.30
2022-12-18T10:30:29.008Z,-1.36
2022-12-18T10:33:34.642Z,-1.36
2022-12-18T10:36:39.083Z,-1.29
2022-12-18T10:39:42.416Z,-1.24
2022-12-18T10:42:46.083Z,-1.13
2022-12-18T10:46:11.194Z,-1.17
2022-12-18T10:49:29.383Z,-1.03
2022-12-18T10:52:32.501Z,-0.73
2022-12-18T10:55:40.956Z,-0.52
2022-12-18T10:58:57.866Z,-0.24
2022-12-18T11:02:01.413Z,-0.07
2022-12-18T11:05:24.862Z,-0.02
2022-12-18T11:08:30.022Z,-0.03
2022-12-18T11:11:34.447Z,0.19
2022-12-18T11:14:47.363Z,0.45
2022-12-18T11:17:52.800Z,0.59
2022-12-18T11:21:00.111Z,0.67
2022-12-18T11:24:03.377Z,0.88
2022-12-18T11:27:18.977Z,0.98
2022-12-18T11:30:26.843Z,1.10
2022-12-18T11:33:30.284Z,1.02
2022-12-18T11:36:43.427Z,0.86
2022-12-18T11:39:56.163Z,0.80
2022-12-18T11:43:14.525Z,0.84
2022-12-18T11:46:41.192Z,0.84
2022-12-18T11:49:44.432Z,0.91
2022-12-18T11:52:51.576Z,0.95
2022-12-18T11:56:24.334Z,1.04
2022-12-18T11:59:43.699Z,1.22
2022-12-18T12:03:17.865Z,1.29
2022-12-18T12:06:48.955Z,1.20
2022-12-18T12:10:17.955Z,1.26
2022-12-18T12:13:36.475Z,1.41
2022-12-18T12:17:26.077Z,1.55
2022-12-18T12:20:51.864Z,1.64
2022-12-18T12:24:24.728Z,1.51
2022-12-18T12:27:36.202Z,1.49
2022-12-18T12:31:11.159Z,1.66
2022-12-18T12:34:24.011Z,1.69
2022-12-18T12:37:34.115Z,1.70
2022-12-18T12:41:02.540Z,1.66
2022-12-18T12:44:14.748Z,1.47
2022-12-18T12:47:33.522Z,1.17
2022-12-18T12:50:38.807Z,0.85
2022-12-18T12:53:43.010Z,0.64
2022-12-18T12:56:46.289Z,0.44
2022-12-18T13:00:05.017Z,0.32
2022-12-18T13:03:33.184Z,0.32
2022-12-18T13:07:00.424Z,0.36
2022-12-18T13:10:25.747Z,0.44
2022-12-18T13:13:50.780Z,0.53
2022-12-18T13:17:21.031Z,0.64
2022-12-18T13:20:35.408Z,0.88
2022-12-18T13:23:39.683Z,1.08
2022-12-18T13:26:43.335Z,1.29
2022-12-18T13:29:48.130Z,1.40
2022-12-18T13:33:14.999Z,1.52
2022-12-18T13:36:28.445Z,1.39
2022-12-18T13:39:35.899Z,1.31
2022-12-18T13:42:59.722Z,1.31
2022-12-18T13:46:07.381Z,1.31
2022-12-18T13:49:13.762Z,1.33
2022-12-18T13:52:27.254Z,1.35
2022-12-18T13:55:31.146Z,1.17
2022-12-18T13:58:34.733Z,0.94
2022-12-18T14:01:37.994Z,0.75
2022-12-18T14:04:41.621Z,0.50
2022-12-18T14:07:48.309Z,0.32
2022-12-18T14:10:54.734Z,0.13
2022-12-18T14:13:58.565Z,-0.15
2022-12-18T14:17:03.538Z,-0.46
2022-12-18T14:20:16.603Z,-0.79
2022-12-18T14:23:41.499Z,-1.04
2022-12-18T14:26:45.018Z,-1.35
2022-12-18T14:29:48.586Z,-1.60
2022-12-18T14:33:25.358Z,-1.81
2022-12-18T14:36:30.565Z,-2.11
2022-12-18T14:39:33.769Z,-2.37
2022-12-18T14:42:39.035Z,-2.54
2022-12-18T14:45:44.598Z,-2.74
2022-12-18T14:48:49.471Z,-2.90
2022-12-18T14:52:01.343Z,-3.06
2022-12-18T14:55:08.296Z,-3.17
2022-12-18T14:58:18.769Z,-3.30
2022-12-18T15:02:03.574Z,-3.49
2022-12-18T15:05:15.276Z,-3.63
2022-12-18T15:08:38.153Z,-3.64
2022-12-18T15:11:42.961Z,-3.67
2022-12-18T15:15:01.830Z,-3.71
2022-12-18T15:18:23.127Z,-3.82
2022-12-18T15:21:32.023Z,-3.97
2022-12-18T15:24:37.815Z,-4.10
2022-12-18T15:27:49.099Z,-4.20
2022-12-18T15:31:12.956Z,-4.29
2022-12-18T15:34:25.125Z,-4.33
2022-12-18T15:37:30.679Z,-4.45
2022-12-18T15:40:37.735Z,-4.51
2022-12-18T15:43:43.334Z,-4.46
2022-12-18T15:46:50.307Z,-4.52
2022-12-18T15:49:54.834Z,-4.54
2022-12-18T15:53:00.107Z,-4.51
2022-12-18T15:56:29.542Z,-4.58
2022-12-18T15:59:34.367Z,-4.66
2022-12-18T16:02:39.415Z,-4.64
2022-12-18T16:05:44.401Z,-4.60
2022-12-18T16:08:48.830Z,-4.55
2022-12-18T16:11:56.249Z,-4.61
2022-12-18T16:15:03.529Z,-4.67
2022-12-18T16:18:08.096Z,-4.70
2022-12-18T16:21:12.262Z,-4.72
2022-12-18T16:24:23.527Z,-4.85
2022-12-18T16:27:29.686Z,-4.85
2022-12-18T16:30:38.013Z,-4.93
2022-12-18T16:33:43.728Z,-4.89
2022-12-18T16:36:49.898Z,-4.95
2022-12-18T16:39:54.686Z,-5.06
2022-12-18T16:43:11.771Z,-5.08
2022-12-18T16:46:15.868Z,-5.16
2022-12-18T16:49:21.184Z,-5.15
2022-12-18T16:52:26.368Z,-5.16
2022-12-18T16:55:31.336Z,-5.29
2022-12-18T16:58:36.376Z,-5.28
2022-12-18T17:01:42.449Z,-5.36
2022-12-18T17:04:48.710Z,-5.35
2022-12-18T17:07:52.995Z,-5.40
2022-12-18T17:10:57.253Z,-5.40
2022-12-18T17:14:07.855Z,-5.29
2022-12-18T17:17:23.071Z,-5.17
2022-12-18T17:20:32.633Z,-5.15
2022-12-18T17:23:38.244Z,-5.29
2022-12-18T17:26:43.081Z,-5.29
2022-12-18T17:29:48.788Z,-5.36
2022-12-18T17:32:57.484Z,-5.42
2022-12-18T17:36:03.028Z,-5.52
2022-12-18T17:39:18.929Z,-5.53
2022-12-18T17:42:23.065Z,-5.59
2022-12-18T17:45:29.275Z,-5.66
2022-12-18T17:48:36.176Z,-5.67
2022-12-18T17:51:43.512Z,-5.73
2022-12-18T17:54:47.558Z,-5.74
2022-12-18T17:57:54.162Z,-5.81
2022-12-18T18:01:01.048Z,-5.76
2022-12-18T18:04:07.144Z,-5.86
2022-12-18T18:07:11.745Z,-5.84
2022-12-18T18:10:17.732Z,-5.89
2022-12-18T18:13:47.156Z,-5.99
2022-12-18T18:16:53.004Z,-6.04
2022-12-18T18:19:57.704Z,-5.99
2022-12-18T18:23:02.481Z,-6.03
2022-12-18T18:26:08.781Z,-6.04
2022-12-18T18:29:21.227Z,-6.05
2022-12-18T18:32:26.000Z,-6.06
2022-12-18T18:35:53.351Z,-6.13
2022-12-18T18:38:55.351Z,-6.22
2022-12-18T18:42:00.075Z,-6.19
2022-12-18T18:45:11.697Z,-6.23
2022-12-18T18:48:17.692Z,-6.20
2022-12-18T18:51:24.186Z,-6.26
2022-12-18T18:54:31.699Z,-6.26
2022-12-18T18:57:36.231Z,-6.33
2022-12-18T19:00:41.266Z,-6.43
2022-12-18T19:03:46.875Z,-6.45
2022-12-18T19:06:51.353Z,-6.49
2022-12-18T19:09:57.648Z,-6.49
2022-12-18T19:13:22.854Z,-6.52
2022-12-18T19:16:28.679Z,-6.53
2022-12-18T19:19:36.350Z,-6.57
2022-12-18T19:22:42.233Z,-6.67
2022-12-18T19:25:50.670Z,-6.74
2022-12-18T19:29:01.635Z,-6.70
2022-12-18T19:32:07.437Z,-6.76
2022-12-18T19:35:12.804Z,-6.82
2022-12-18T19:38:18.854Z,-6.82
2022-12-18T19:41:24.534Z,-6.90
2022-12-18T19:44:30.814Z,-6.84
2022-12-18T19:47:36.125Z,-6.83
2022-12-18T19:50:42.879Z,-6.79
2022-12-18T19:53:48.163Z,-6.72
2022-12-18T19:56:54.041Z,-6.59
2022-12-18T19:59:58.563Z,-6.64
2022-12-18T20:03:16.020Z,-6.65
2022-12-18T20:06:33.561Z,-6.71
2022-12-18T20:09:39.112Z,-6.81
2022-12-18T20:12:43.891Z,-6.91
2022-12-18T20:15:48.047Z,-6.99
2022-12-18T20:18:52.448Z,-7.05
2022-12-18T20:21:56.854Z,-7.11
2022-12-18T20:25:01.668Z,-7.10
2022-12-18T20:28:06.133Z,-7.11
2022-12-18T20:31:13.352Z,-7.12
2022-12-18T20:34:18.106Z,-7.15
2022-12-18T20:37:22.567Z,-7.17
2022-12-18T20:40:29.504Z,-7.13
2022-12-18T20:43:33.085Z,-7.15
2022-12-18T20:46:38.374Z,-7.06
2022-12-18T20:49:42.689Z,-6.86
2022-12-18T20:52:50.754Z,-6.48
2022-12-18T20:55:54.343Z,-6.19
2022-12-18T20:58:58.914Z,-5.94
2022-12-18T21:02:02.675Z,-5.77
2022-12-18T21:05:06.483Z,-5.55
2022-12-18T21:08:10.914Z,-5.37
2022-12-18T21:11:40.658Z,-5.24
2022-12-18T21:14:44.902Z,-5.13
2022-12-18T21:17:49.712Z,-5.08
2022-12-18T21:20:53.197Z,-4.94
2022-12-18T21:23:56.596Z,-4.84
2022-12-18T21:27:00.356Z,-4.75
2022-12-18T21:30:03.993Z,-4.67
2022-12-18T21:33:07.603Z,-4.60
2022-12-18T21:36:11.078Z,-4.51
2022-12-18T21:39:16.324Z,-4.45
2022-12-18T21:42:38.080Z,-4.37
2022-12-18T21:45:41.546Z,-4.31
2022-12-18T21:48:45.863Z,-4.24
2022-12-18T21:51:51.098Z,-4.17
2022-12-18T21:54:54.256Z,-4.10
2022-12-18T21:57:58.554Z,-4.07
2022-12-18T22:01:01.663Z,-4.00
2022-12-18T22:04:05.299Z,-3.95
2022-12-18T22:07:09.384Z,-3.89
2022-12-18T22:10:14.702Z,-3.85
2022-12-18T22:13:17.930Z,-3.81
2022-12-18T22:16:21.117Z,-3.77
2022-12-18T22:19:27.632Z,-3.72
2022-12-18T22:22:30.808Z,-3.64
2022-12-18T22:25:35.228Z,-3.64
2022-12-18T22:28:59.200Z,-3.57
2022-12-18T22:32:04.196Z,-3.52
2022-12-18T22:35:14.150Z,-3.50
2022-12-18T22:38:19.112Z,-3.47
2022-12-18T22:41:22.436Z,-3.44
2022-12-18T22:44:26.849Z,-3.38
2022-12-18T22:47:30.832Z,-3.35
2022-12-18T22:50:33.995Z,-3.33
2022-12-18T22:53:37.333Z,-3.29
2022-12-18T22:56:40.714Z,-3.28
2022-12-18T22:59:44.213Z,-3.26
2022-12-18T23:02:47.432Z,-3.23
2022-12-18T23:05:50.992Z,-3.20
2022-12-18T23:08:58.247Z,-3.17
2022-12-18T23:12:01.665Z,-3.18
2022-12-18T23:15:05.611Z,-3.13
2022-12-18T23:18:09.068Z,-3.13
2022-12-18T23:21:17.685Z,-3.08
2022-12-18T23:24:22.073Z,-3.06
2022-12-18T23:27:25.223Z,-3.05
2022-12-18T23:30:28.818Z,-3.00
2022-12-18T23:33:31.942Z,-2.97
2022-12-18T23:36:46.513Z,-2.94
2022-12-18T23:39:50.165Z,-2.94
2022-12-18T23:42:53.481Z,-2.93
2022-12-18T23:45:56.478Z,-2.88
2022-12-18T23:49:01.924Z,-2.88
2022-12-18T23:52:05.206Z,-2.87
2022-12-18T23:55:08.912Z,-2.86
2022-12-18T23:58:20.222Z,-2.83
